Time,TemperatureF,DewpointF,PressureIn,WindDirection,WindDirectionDegrees,WindSpeedMPH,WindSpeedGustMPH,Humidity,HourlyPrecipIn,Conditions,Clouds,dailyrainin,SoftwareType,DateUTC
2013-05-17 00:01:00,62.0,62.0,29.83,North,11,0.0,0.0,100,0.00,,,0.00,VWS V13.01,2013-05-17 05:01:00,
2013-05-17 00:06:00,62.2,62.2,29.83,NNE,24,0.0,0.0,100,0.00,,,0.00,VWS V13.01,2013-05-17 05:06:00,
2013-05-17 00:11:00,62.2,62.2,29.83,NNE,23,0.0,0.0,100,0.00,,,0.00,VWS V13.01,2013-05-17 05:11:00,
2013-05-17 00:16:00,62.4,62.4,29.83,NNE,13,0.0,0.0,100,0.00,,,0.00,VWS V13.01,2013-05-17 05:16:00,
2013-05-17 00:21:00,62.2,62.2,29.83,NNE,13,0.0,0.0,100,0.00,,,0.00,VWS V13.01,2013-05-17 05:21:00,
2013-05-17 00:26:00,62.2,62.2,29.83,NNE,13,0.0,0.0,100,0.00,,,0.00,VWS V13.01,2013-05-17 05:26:00,
2013-05-17 00:31:00,62.0,62.0,29.83,NNE,13,0.0,0.0,100,0.00,,,0.00,VWS V13.01,2013-05-17 05:31:00,
2013-05-17 00:36:00,62.0,62.0,29.83,NNE,13,0.0,0.0,100,0.00,,,0.00,VWS V13.01,2013-05-17 05:36:00,
2013-05-17 00:41:00,62.0,62.0,29.83,North,349,0.0,0.0,100,0.00,,,0.00,VWS V13.01,2013-05-17 05:41:00,
2013-05-17 00:46:00,62.0,62.0,29.83,North,349,0.0,0.0,100,0.00,,,0.00,VWS V13.01,2013-05-17 05:46:00,
2013-05-17 00:51:00,62.0,62.0,29.83,North,349,0.0,0.0,100,0.00,,,0.00,VWS V13.01,2013-05-17 05:51:00,
2013-05-17 00:56:00,62.0,62.0,29.83,North,349,0.0,0.0,100,0.00,,,0.00,VWS V13.01,2013-05-17 05:56:00,
2013-05-17 01:01:00,62.0,62.0,29.83,North,349,0.0,0.0,100,0.00,,,0.00,VWS V13.01,2013-05-17 06:01:00,
2013-05-17 01:06:00,62.0,62.0,29.83,North,349,0.0,0.0,100,0.00,,,0.00,VWS V13.01,2013-05-17 06:06:00,
2013-05-17 01:11:00,62.0,62.0,29.83,North,349,0.0,0.0,100,0.00,,,0.00,VWS V13.01,2013-05-17 06:11:00,
2013-05-17 01:16:00,62.0,62.0,29.83,North,349,0.0,0.0,100,0.00,,,0.00,VWS V13.01,2013-05-17 06:16:00,
2013-05-17 01:21:00,62.0,62.0,29.83,North,349,0.0,0.0,100,0.00,,,0.00,VWS V13.01,2013-05-17 06:21:00,
2013-05-17 01:26:00,62.0,62.0,29.83,North,349,0.0,0.0,100,0.00,,,0.00,VWS V13.01,2013-05-17 06:26:00,
2013-05-17 01:31:00,62.0,62.0,29.83,North,349,0.0,0.0,100,0.00,,,0.00,VWS V13.01,2013-05-17 06:31:00,
2013-05-17 01:35:00,62.0,62.0,29.83,ESE,115,0.0,0.0,100,0.00,,,0.00,VWS V13.01,2013-05-17 06:35:00,
2013-05-17 01:40:00,61.9,61.9,29.83,ESE,115,0.0,0.0,100,0.00,,,0.00,VWS V13.01,2013-05-17 06:40:00,
2013-05-17 01:45:00,61.9,61.9,29.83,ESE,115,0.0,0.0,100,0.00,,,0.00,VWS V13.01,2013-05-17 06:45:00,
2013-05-17 01:50:00,61.9,61.9,29.83,ESE,115,0.0,0.0,100,0.00,,,0.00,VWS V13.01,2013-05-17 06:50:00,
2013-05-17 01:55:00,61.9,61.9,29.83,ESE,115,0.0,0.0,100,0.00,,,0.00,VWS V13.01,2013-05-17 06:55:00,
2013-05-17 02:00:00,62.0,62.0,29.83,ESE,115,0.0,0.0,100,0.00,,,0.00,VWS V13.01,2013-05-17 07:00:00,
2013-05-17 02:05:00,62.0,62.0,29.83,ESE,115,0.0,0.0,100,0.00,,,0.00,VWS V13.01,2013-05-17 07:05:00,
2013-05-17 02:10:00,61.9,61.9,29.83,ESE,115,0.0,0.0,100,0.00,,,0.00,VWS V13.01,2013-05-17 07:10:00,
2013-05-17 02:15:00,61.9,61.9,29.83,ESE,115,0.0,0.0,100,0.00,,,0.00,VWS V13.01,2013-05-17 07:15:00,
2013-05-17 02:20:00,61.9,61.9,29.83,ESE,115,0.0,0.0,100,0.00,,,0.00,VWS V13.01,2013-05-17 07:20:00,
2013-05-17 02:25:00,61.9,61.9,29.83,ESE,115,0.0,0.0,100,0.00,,,0.00,VWS V13.01,2013-05-17 07:25:00,
2013-05-17 02:30:00,61.9,61.9,29.83,ESE,115,0.0,0.0,100,0.00,,,0.00,VWS V13.01,2013-05-17 07:30:00,
2013-05-17 02:35:00,61.9,61.9,29.83,ESE,115,0.0,0.0,100,0.00,,,0.00,VWS V13.01,2013-05-17 07:35:00,
2013-05-17 02:40:00,61.7,61.7,29.83,ESE,115,0.0,0.0,100,0.00,,,0.00,VWS V13.01,2013-05-17 07:40:00,
2013-05-17 02:45:00,61.7,61.7,29.83,ESE,115,0.0,0.0,100,0.00,,,0.00,VWS V13.01,2013-05-17 07:45:00,
2013-05-17 02:50:00,61.7,61.7,29.83,ESE,115,0.0,0.0,100,0.00,,,0.00,VWS V13.01,2013-05-17 07:50:00,
2013-05-17 02:55:00,61.7,61.7,29.83,ESE,115,0.0,0.0,100,0.00,,,0.00,VWS V13.01,2013-05-17 07:55:00,
2013-05-17 03:00:00,61.9,61.9,29.80,ESE,115,0.0,0.0,100,0.00,,,0.00,VWS V13.01,2013-05-17 08:00:00,
2013-05-17 03:05:00,61.9,61.9,29.80,ESE,115,0.0,0.0,100,0.00,,,0.00,VWS V13.01,2013-05-17 08:05:00,
2013-05-17 03:10:00,61.9,61.9,29.80,ESE,115,0.0,0.0,100,0.00,,,0.00,VWS V13.01,2013-05-17 08:10:00,
2013-05-17 03:15:00,61.7,61.7,29.80,ESE,115,0.0,0.0,100,0.00,,,0.00,VWS V13.01,2013-05-17 08:15:00,
2013-05-17 03:20:00,61.5,61.5,29.80,ESE,115,0.0,0.0,100,0.00,,,0.00,VWS V13.01,2013-05-17 08:20:00,
2013-05-17 03:25:00,61.5,61.5,29.80,ESE,115,0.0,0.0,100,0.00,,,0.00,VWS V13.01,2013-05-17 08:25:00,
2013-05-17 03:30:00,61.5,61.5,29.80,ESE,115,0.0,0.0,100,0.00,,,0.00,VWS V13.01,2013-05-17 08:30:00,
2013-05-17 03:35:00,61.3,61.3,29.80,ESE,115,0.0,0.0,100,0.00,,,0.00,VWS V13.01,2013-05-17 08:35:00,
2013-05-17 03:40:00,61.3,61.3,29.80,ESE,115,0.0,0.0,100,0.00,,,0.00,VWS V13.01,2013-05-17 08:40:00,
2013-05-17 03:45:00,61.3,61.3,29.80,ESE,120,0.0,0.0,100,0.00,,,0.00,VWS V13.01,2013-05-17 08:45:00,
2013-05-17 03:50:00,61.1,61.1,29.80,ESE,120,0.0,0.0,100,0.00,,,0.00,VWS V13.01,2013-05-17 08:50:00,
2013-05-17 03:55:00,61.1,61.1,29.80,ESE,120,0.0,0.0,100,0.00,,,0.00,VWS V13.01,2013-05-17 08:55:00,
2013-05-17 04:00:00,61.1,61.1,29.83,ESE,120,0.0,0.0,100,0.00,,,0.00,VWS V13.01,2013-05-17 09:00:00,
2013-05-17 04:05:00,61.1,61.1,29.83,ESE,120,0.0,0.0,100,0.00,,,0.00,VWS V13.01,2013-05-17 09:05:00,
2013-05-17 04:10:00,61.1,61.1,29.83,ESE,120,0.0,0.0,100,0.00,,,0.00,VWS V13.01,2013-05-17 09:10:00,
2013-05-17 04:15:00,61.1,61.1,29.83,ESE,120,0.0,0.0,100,0.00,,,0.00,VWS V13.01,2013-05-17 09:15:00,
2013-05-17 04:20:00,61.1,61.1,29.83,ESE,120,0.0,0.0,100,0.00,,,0.00,VWS V13.01,2013-05-17 09:20:00,
2013-05-17 04:25:00,61.1,61.1,29.83,ESE,120,0.0,0.0,100,0.00,,,0.00,VWS V13.01,2013-05-17 09:25:00,
2013-05-17 04:30:00,61.3,61.3,29.83,ESE,120,0.0,0.0,100,0.00,,,0.00,VWS V13.01,2013-05-17 09:30:00,
2013-05-17 04:35:00,61.3,61.3,29.83,ESE,120,0.0,0.0,100,0.00,,,0.00,VWS V13.01,2013-05-17 09:35:00,
2013-05-17 04:40:00,61.3,61.3,29.83,ESE,120,0.0,0.0,100,0.00,,,0.00,VWS V13.01,2013-05-17 09:40:00,
2013-05-17 04:45:00,61.3,61.3,29.83,ESE,120,0.0,0.0,100,0.00,,,0.00,VWS V13.01,2013-05-17 09:45:00,
2013-05-17 04:50:00,61.3,61.3,29.83,ESE,120,0.0,0.0,100,0.00,,,0.00,VWS V13.01,2013-05-17 09:50:00,
2013-05-17 04:55:00,61.3,61.3,29.83,ESE,120,0.0,0.0,100,0.00,,,0.00,VWS V13.01,2013-05-17 09:55:00,
2013-05-17 05:00:00,61.1,61.1,29.83,ESE,120,0.0,0.0,100,0.00,,,0.00,VWS V13.01,2013-05-17 10:00:00,
2013-05-17 05:05:00,61.1,61.1,29.83,ESE,120,0.0,0.0,100,0.00,,,0.00,VWS V13.01,2013-05-17 10:05:00,
2013-05-17 05:10:00,61.1,61.1,29.83,ESE,115,0.0,0.0,100,0.00,,,0.00,VWS V13.01,2013-05-17 10:10:00,
2013-05-17 05:15:00,61.1,61.1,29.83,NE,37,0.0,0.0,100,0.00,,,0.00,VWS V13.01,2013-05-17 10:15:00,
2013-05-17 05:20:00,61.1,61.1,29.83,NE,37,0.0,0.0,100,0.00,,,0.00,VWS V13.01,2013-05-17 10:20:00,
2013-05-17 05:25:00,61.1,61.1,29.83,NE,37,0.0,0.0,100,0.00,,,0.00,VWS V13.01,2013-05-17 10:25:00,
2013-05-17 05:30:00,61.1,61.1,29.83,NE,37,0.0,0.0,100,0.00,,,0.00,VWS V13.01,2013-05-17 10:30:00,
2013-05-17 05:35:00,61.1,61.1,29.83,NE,37,0.0,0.0,100,0.00,,,0.00,VWS V13.01,2013-05-17 10:35:00,
2013-05-17 05:40:00,61.1,61.1,29.83,NE,37,0.0,0.0,100,0.00,,,0.00,VWS V13.01,2013-05-17 10:40:00,
2013-05-17 05:45:00,61.1,61.1,29.83,NE,37,0.0,0.0,100,0.00,,,0.00,VWS V13.01,2013-05-17 10:45:00,
2013-05-17 05:50:00,61.1,61.1,29.83,NE,37,0.0,0.0,100,0.00,,,0.00,VWS V13.01,2013-05-17 10:50:00,
2013-05-17 05:55:00,61.1,61.1,29.83,NE,37,0.0,0.0,100,0.00,,,0.00,VWS V13.01,2013-05-17 10:55:00,
2013-05-17 06:00:00,61.1,61.1,29.83,NE,37,0.0,0.0,100,0.00,,,0.00,VWS V13.01,2013-05-17 11:00:00,
2013-05-17 06:05:00,61.1,61.1,29.83,NE,37,0.0,0.0,100,0.00,,,0.00,VWS V13.01,2013-05-17 11:05:00,
2013-05-17 06:10:00,61.1,61.1,29.83,NE,37,0.0,0.0,100,0.00,,,0.00,VWS V13.01,2013-05-17 11:10:00,
2013-05-17 06:15:00,61.1,61.1,29.86,NE,37,0.0,0.0,100,0.00,,,0.00,VWS V13.01,2013-05-17 11:15:00,
2013-05-17 06:20:00,61.1,61.1,29.86,NE,37,0.0,0.0,100,0.00,,,0.00,VWS V13.01,2013-05-17 11:20:00,
2013-05-17 06:25:00,61.3,61.3,29.86,NE,37,0.0,0.0,100,0.00,,,0.00,VWS V13.01,2013-05-17 11:25:00,
2013-05-17 06:30:00,61.3,61.3,29.86,NE,37,0.0,0.0,100,0.00,,,0.00,VWS V13.01,2013-05-17 11:30:00,
2013-05-17 06:35:00,61.3,61.3,29.86,NE,37,0.0,0.0,100,0.00,,,0.00,VWS V13.01,2013-05-17 11:35:00,
2013-05-17 06:40:00,61.5,61.5,29.86,NE,37,0.0,0.0,100,0.00,,,0.00,VWS V13.01,2013-05-17 11:40:00,
2013-05-17 06:45:00,61.5,61.5,29.86,NE,37,0.0,0.0,100,0.00,,,0.00,VWS V13.01,2013-05-17 11:45:00,
2013-05-17 06:50:00,61.5,61.5,29.86,NE,37,0.0,0.0,100,0.00,,,0.00,VWS V13.01,2013-05-17 11:50:00,
2013-05-17 06:55:00,61.5,61.5,29.86,NE,37,0.0,0.0,100,0.00,,,0.00,VWS V13.01,2013-05-17 11:55:00,
2013-05-17 07:00:00,61.5,61.5,29.86,NE,37,0.0,0.0,100,0.00,,,0.00,VWS V13.01,2013-05-17 12:00:00,
2013-05-17 07:04:00,61.5,61.5,29.86,NE,37,0.0,0.0,100,0.00,,,0.00,VWS V13.01,2013-05-17 12:04:00,
2013-05-17 07:09:00,61.5,61.5,29.86,NE,37,0.0,0.0,100,0.00,,,0.00,VWS V13.01,2013-05-17 12:09:00,
2013-05-17 07:14:00,61.7,61.7,29.86,NE,37,0.0,0.0,100,0.00,,,0.00,VWS V13.01,2013-05-17 12:14:00,
2013-05-17 07:19:00,61.9,61.9,29.86,NE,37,0.0,0.0,100,0.00,,,0.00,VWS V13.01,2013-05-17 12:19:00,
2013-05-17 07:24:00,62.0,62.0,29.86,NE,37,0.0,0.0,100,0.00,,,0.00,VWS V13.01,2013-05-17 12:24:00,
2013-05-17 07:29:00,62.0,62.0,29.86,NE,37,0.0,0.0,100,0.00,,,0.00,VWS V13.01,2013-05-17 12:29:00,
2013-05-17 07:34:00,62.4,62.4,29.86,NE,37,0.0,0.0,100,0.00,,,0.00,VWS V13.01,2013-05-17 12:34:00,
2013-05-17 07:39:00,62.9,62.9,29.86,NE,37,0.0,0.0,100,0.00,,,0.00,VWS V13.01,2013-05-17 12:39:00,
2013-05-17 07:44:00,62.8,62.8,29.86,NE,37,0.0,0.0,100,0.00,,,0.00,VWS V13.01,2013-05-17 12:44:00,
2013-05-17 07:49:00,63.1,63.1,29.86,NE,37,0.0,0.0,100,0.00,,,0.00,VWS V13.01,2013-05-17 12:49:00,
2013-05-17 07:54:00,63.1,63.1,29.86,WSW,253,0.0,0.0,100,0.00,,,0.00,VWS V13.01,2013-05-17 12:54:00,
2013-05-17 07:59:00,63.1,63.1,29.86,SW,234,2.7,2.7,100,0.00,,,0.00,VWS V13.01,2013-05-17 12:59:00,
2013-05-17 08:04:00,63.1,63.1,29.86,WSW,237,0.0,0.0,100,0.00,,,0.00,VWS V13.01,2013-05-17 13:04:00,
2013-05-17 08:09:00,63.3,63.3,29.86,South,175,3.1,3.1,100,0.00,,,0.00,VWS V13.01,2013-05-17 13:09:00,
2013-05-17 08:14:00,63.5,63.5,29.86,South,175,0.0,0.0,100,0.00,,,0.00,VWS V13.01,2013-05-17 13:14:00,
2013-05-17 08:19:00,63.8,63.8,29.86,SSE,168,2.7,2.7,100,0.00,,,0.00,VWS V13.01,2013-05-17 13:19:00,
2013-05-17 08:24:00,64.2,64.2,29.86,South,175,0.0,0.0,100,0.00,,,0.00,VWS V13.01,2013-05-17 13:24:00,
2013-05-17 08:29:00,64.4,64.4,29.86,SSE,153,0.0,0.0,100,0.00,,,0.00,VWS V13.01,2013-05-17 13:29:00,
2013-05-17 08:34:00,64.7,64.7,29.86,SSE,153,0.0,0.0,100,0.00,,,0.00,VWS V13.01,2013-05-17 13:34:00,
2013-05-17 08:39:00,65.3,65.3,29.86,SSE,164,0.0,0.0,100,0.00,,,0.00,VWS V13.01,2013-05-17 13:39:00,
2013-05-17 08:44:00,65.3,65.3,29.89,South,190,0.0,0.0,100,0.00,,,0.00,VWS V13.01,2013-05-17 13:44:00,
2013-05-17 08:49:00,65.6,65.6,29.89,West,272,0.0,0.0,100,0.00,,,0.00,VWS V13.01,2013-05-17 13:49:00,
2013-05-17 08:54:00,65.6,65.6,29.89,WSW,256,0.0,0.0,100,0.00,,,0.00,VWS V13.01,2013-05-17 13:54:00,
2013-05-17 08:59:00,66.0,66.0,29.89,SW,222,0.0,0.0,100,0.00,,,0.00,VWS V13.01,2013-05-17 13:59:00,
2013-05-17 09:04:00,66.4,66.4,29.89,WSW,248,0.0,0.0,100,0.00,,,0.00,VWS V13.01,2013-05-17 14:04:00,
2013-05-17 09:09:00,66.7,66.7,29.89,SSW,196,0.0,2.2,100,0.00,,,0.00,VWS V13.01,2013-05-17 14:09:00,
2013-05-17 09:14:00,67.1,67.1,29.89,SSW,201,0.0,0.0,100,0.00,,,0.00,VWS V13.01,2013-05-17 14:14:00,
2013-05-17 09:19:00,66.5,66.5,29.89,WNW,283,4.9,4.9,100,0.00,,,0.00,VWS V13.01,2013-05-17 14:19:00,
2013-05-17 09:24:00,66.7,66.7,29.89,WSW,258,0.0,0.0,100,0.00,,,0.00,VWS V13.01,2013-05-17 14:24:00,
2013-05-17 09:29:00,67.6,67.6,29.89,WSW,252,0.0,0.0,100,0.00,,,0.00,VWS V13.01,2013-05-17 14:29:00,
2013-05-17 09:34:00,67.4,67.4,29.89,SSE,166,3.1,4.0,100,0.00,,,0.00,VWS V13.01,2013-05-17 14:34:00,
2013-05-17 09:39:00,67.8,67.8,29.89,SSE,166,0.0,0.0,100,0.00,,,0.00,VWS V13.01,2013-05-17 14:39:00,
2013-05-17 09:44:00,68.5,68.5,29.89,East,89,0.0,2.2,100,0.00,,,0.00,VWS V13.01,2013-05-17 14:44:00,
2013-05-17 09:49:00,69.4,69.1,29.89,NE,42,2.7,3.6,99,0.00,,,0.00,VWS V13.01,2013-05-17 14:49:00,
2013-05-17 09:54:00,70.5,64.4,29.89,ENE,58,2.2,3.1,81,0.00,,,0.00,VWS V13.01,2013-05-17 14:54:00,
2013-05-17 09:59:00,71.4,61.5,29.89,ENE,57,0.0,0.0,71,0.00,,,0.00,VWS V13.01,2013-05-17 14:59:00,
2013-05-17 10:04:00,72.1,63.4,29.89,East,101,0.0,0.0,74,0.00,,,0.00,VWS V13.01,2013-05-17 15:04:00,
2013-05-17 10:09:00,72.5,60.9,29.89,North,357,0.0,2.2,67,0.00,,,0.00,VWS V13.01,2013-05-17 15:09:00,
2013-05-17 10:14:00,72.5,61.7,29.89,South,183,0.0,0.0,69,0.00,,,0.00,VWS V13.01,2013-05-17 15:14:00,
2013-05-17 10:19:00,71.8,60.2,29.89,NW,309,0.0,0.0,67,0.00,,,0.00,VWS V13.01,2013-05-17 15:19:00,
2013-05-17 10:24:00,72.3,61.2,29.89,North,359,0.0,0.0,68,0.00,,,0.00,VWS V13.01,2013-05-17 15:24:00,
2013-05-17 10:29:00,72.7,62.3,29.89,SE,143,2.7,2.7,70,0.00,,,0.00,VWS V13.01,2013-05-17 15:29:00,
2013-05-17 10:34:00,72.1,61.0,29.89,ESE,107,0.0,0.0,68,0.00,,,0.00,VWS V13.01,2013-05-17 15:34:00,
2013-05-17 10:39:00,71.8,60.6,29.89,South,177,0.0,2.7,68,0.00,,,0.00,VWS V13.01,2013-05-17 15:39:00,
2013-05-17 10:44:00,71.6,60.9,29.89,SSE,155,5.4,5.4,69,0.00,,,0.00,VWS V13.01,2013-05-17 15:44:00,
2013-05-17 10:49:00,71.6,60.9,29.89,South,175,3.1,3.6,69,0.00,,,0.00,VWS V13.01,2013-05-17 15:49:00,
2013-05-17 10:54:00,71.4,62.3,29.89,South,182,3.6,3.6,73,0.00,,,0.00,VWS V13.01,2013-05-17 15:54:00,
2013-05-17 10:59:00,71.4,61.5,29.89,SW,235,0.0,2.2,71,0.00,,,0.00,VWS V13.01,2013-05-17 15:59:00,
2013-05-17 11:04:00,71.9,62.4,29.89,WSW,247,3.6,4.0,72,0.00,,,0.04,VWS V13.01,2013-05-17 16:04:00,
2013-05-17 11:09:00,72.1,60.6,29.89,South,171,6.3,6.3,67,0.04,,,0.04,VWS V13.01,2013-05-17 16:09:00,
2013-05-17 11:14:00,72.5,60.9,29.89,East,100,3.1,4.9,67,0.04,,,0.04,VWS V13.01,2013-05-17 16:14:00,
2013-05-17 11:19:00,73.0,61.8,29.89,SE,143,4.0,4.0,68,0.04,,,0.04,VWS V13.01,2013-05-17 16:19:00,
2013-05-17 11:24:00,73.2,62.0,29.89,WSW,248,0.0,0.0,68,0.04,,,0.04,VWS V13.01,2013-05-17 16:24:00,
2013-05-17 11:29:00,73.6,61.1,29.89,SSE,164,4.0,5.4,65,0.04,,,0.04,VWS V13.01,2013-05-17 16:29:00,
2013-05-17 11:34:00,73.7,61.2,29.89,South,180,6.3,6.3,65,0.04,,,0.04,VWS V13.01,2013-05-17 16:34:00,
2013-05-17 11:39:00,73.7,61.7,29.89,South,176,3.6,5.8,66,0.04,,,0.04,VWS V13.01,2013-05-17 16:39:00,
2013-05-17 11:44:00,73.9,61.9,29.89,SE,138,3.6,3.6,66,0.04,,,0.04,VWS V13.01,2013-05-17 16:44:00,
2013-05-17 11:49:00,74.1,61.2,29.89,SE,129,2.2,2.2,64,0.04,,,0.04,VWS V13.01,2013-05-17 16:49:00,
2013-05-17 11:54:00,73.9,61.0,29.89,WSW,243,4.0,4.0,64,0.04,,,0.04,VWS V13.01,2013-05-17 16:54:00,
2013-05-17 11:59:00,73.7,61.2,29.89,SSE,161,0.0,0.0,65,0.04,,,0.04,VWS V13.01,2013-05-17 16:59:00,
2013-05-17 12:04:00,74.5,62.4,29.89,SSE,155,4.0,4.0,66,0.04,,,0.04,VWS V13.01,2013-05-17 17:04:00,
2013-05-17 12:09:00,75.0,61.6,29.89,West,262,3.1,4.0,63,0.00,,,0.04,VWS V13.01,2013-05-17 17:09:00,
2013-05-17 12:14:00,75.0,61.1,29.89,WSW,252,5.4,5.4,62,0.00,,,0.04,VWS V13.01,2013-05-17 17:14:00,
2013-05-17 12:19:00,74.8,60.9,29.89,SSE,168,6.3,6.3,62,0.00,,,0.04,VWS V13.01,2013-05-17 17:19:00,
2013-05-17 12:24:00,74.8,61.4,29.89,SE,133,3.6,3.6,63,0.00,,,0.04,VWS V13.01,2013-05-17 17:24:00,
2013-05-17 12:29:00,75.9,62.9,29.89,South,169,0.0,3.1,64,0.00,,,0.04,VWS V13.01,2013-05-17 17:29:00,
2013-05-17 12:34:00,76.6,61.7,29.89,SSE,167,2.2,2.2,60,0.00,,,0.04,VWS V13.01,2013-05-17 17:34:00,
2013-05-17 12:39:00,76.6,62.6,29.89,South,188,3.6,3.6,62,0.00,,,0.04,VWS V13.01,2013-05-17 17:39:00,
2013-05-17 12:44:00,76.4,61.5,29.86,South,177,6.3,6.3,60,0.00,,,0.04,VWS V13.01,2013-05-17 17:44:00,
2013-05-17 12:49:00,76.1,61.2,29.86,East,101,5.8,5.8,60,0.00,,,0.04,VWS V13.01,2013-05-17 17:49:00,
2013-05-17 12:53:00,76.3,61.8,29.86,SE,129,5.4,5.8,61,0.00,,,0.04,VWS V13.01,2013-05-17 17:53:00,
2013-05-17 12:58:00,76.3,60.9,29.89,SE,143,3.1,4.0,59,0.00,,,0.04,VWS V13.01,2013-05-17 17:58:00,
2013-05-17 13:03:00,76.8,62.3,29.89,East,90,2.2,4.0,61,0.00,,,0.04,VWS V13.01,2013-05-17 18:03:00,
2013-05-17 13:08:00,76.8,60.4,29.89,SSW,209,2.7,4.9,57,0.00,,,0.04,VWS V13.01,2013-05-17 18:08:00,
2013-05-17 13:13:00,76.4,61.1,29.89,South,172,5.8,5.8,59,0.00,,,0.04,VWS V13.01,2013-05-17 18:13:00,
2013-05-17 13:18:00,77.0,61.1,29.89,West,263,3.6,4.5,58,0.00,,,0.04,VWS V13.01,2013-05-17 18:18:00,
2013-05-17 13:23:00,77.0,61.1,29.89,East,99,3.6,6.3,58,0.00,,,0.04,VWS V13.01,2013-05-17 18:23:00,
2013-05-17 13:28:00,77.3,61.4,29.89,East,85,3.1,4.0,58,0.00,,,0.04,VWS V13.01,2013-05-17 18:28:00,
2013-05-17 13:33:00,78.4,61.4,29.89,East,85,4.0,4.9,56,0.00,,,0.04,VWS V13.01,2013-05-17 18:33:00,
2013-05-17 13:38:00,78.8,60.8,29.89,NE,35,4.9,4.9,54,0.00,,,0.04,VWS V13.01,2013-05-17 18:38:00,
2013-05-17 13:43:00,79.1,60.6,29.86,WNW,290,0.0,2.2,53,0.00,,,0.04,VWS V13.01,2013-05-17 18:43:00,
2013-05-17 13:48:00,79.9,61.2,29.86,NNW,348,2.2,2.7,53,0.00,,,0.04,VWS V13.01,2013-05-17 18:48:00,
2013-05-17 13:53:00,79.7,60.5,29.86,ENE,60,2.7,2.7,52,0.00,,,0.04,VWS V13.01,2013-05-17 18:53:00,
2013-05-17 13:58:00,79.1,61.1,29.86,West,265,4.0,5.8,54,0.00,,,0.04,VWS V13.01,2013-05-17 18:58:00,
2013-05-17 14:03:00,78.6,60.1,29.86,SSW,207,2.7,4.0,53,0.00,,,0.04,VWS V13.01,2013-05-17 19:03:00,
2013-05-17 14:08:00,79.0,60.9,29.86,SSE,168,3.1,3.1,54,0.00,,,0.04,VWS V13.01,2013-05-17 19:08:00,
2013-05-17 14:13:00,79.3,60.2,29.86,SE,143,3.6,5.4,52,0.00,,,0.04,VWS V13.01,2013-05-17 19:13:00,
2013-05-17 14:18:00,79.3,61.2,29.86,South,169,4.9,5.4,54,0.00,,,0.04,VWS V13.01,2013-05-17 19:18:00,
2013-05-17 14:23:00,79.9,61.8,29.86,WSW,255,2.7,3.1,54,0.00,,,0.04,VWS V13.01,2013-05-17 19:23:00,
2013-05-17 14:28:00,80.0,61.4,29.86,SE,143,3.6,4.9,53,0.00,,,0.04,VWS V13.01,2013-05-17 19:28:00,
2013-05-17 14:33:00,80.0,60.8,29.86,South,191,5.4,5.4,52,0.00,,,0.04,VWS V13.01,2013-05-17 19:33:00,
2013-05-17 14:38:00,79.7,60.0,29.86,South,184,6.3,6.3,51,0.00,,,0.04,VWS V13.01,2013-05-17 19:38:00,
2013-05-17 14:43:00,79.9,60.1,29.86,SE,124,4.9,4.9,51,0.00,,,0.04,VWS V13.01,2013-05-17 19:43:00,
2013-05-17 14:48:00,80.4,60.6,29.86,SSE,157,2.7,2.7,51,0.00,,,0.04,VWS V13.01,2013-05-17 19:48:00,
2013-05-17 14:53:00,80.9,60.6,29.86,SSW,201,3.6,3.6,50,0.00,,,0.04,VWS V13.01,2013-05-17 19:53:00,
2013-05-17 14:58:00,80.8,59.8,29.86,SSE,167,4.0,4.9,49,0.00,,,0.04,VWS V13.01,2013-05-17 19:58:00,
2013-05-17 15:03:00,80.8,61.0,29.86,SSE,161,3.1,4.0,51,0.00,,,0.04,VWS V13.01,2013-05-17 20:03:00,
2013-05-17 15:08:00,80.9,60.0,29.86,South,185,0.0,2.2,49,0.00,,,0.04,VWS V13.01,2013-05-17 20:08:00,
2013-05-17 15:13:00,81.1,60.2,29.86,SSE,147,3.6,3.6,49,0.00,,,0.04,VWS V13.01,2013-05-17 20:13:00,
2013-05-17 15:18:00,80.9,60.0,29.86,SSE,150,3.1,3.1,49,0.00,,,0.04,VWS V13.01,2013-05-17 20:18:00,
2013-05-17 15:23:00,81.3,60.9,29.86,South,180,3.1,3.1,50,0.00,,,0.04,VWS V13.01,2013-05-17 20:23:00,
2013-05-17 15:28:00,81.7,61.8,29.86,SW,226,3.1,3.1,51,0.00,,,0.04,VWS V13.01,2013-05-17 20:28:00,
2013-05-17 15:33:00,81.5,61.1,29.86,South,184,2.7,2.7,50,0.00,,,0.04,VWS V13.01,2013-05-17 20:33:00,
2013-05-17 15:38:00,81.5,61.6,29.86,South,172,4.0,4.0,51,0.00,,,0.04,VWS V13.01,2013-05-17 20:38:00,
2013-05-17 15:43:00,81.5,61.1,29.86,WSW,256,4.0,4.5,50,0.00,,,0.04,VWS V13.01,2013-05-17 20:43:00,
2013-05-17 15:48:00,81.3,60.9,29.86,South,188,4.9,5.8,50,0.00,,,0.04,VWS V13.01,2013-05-17 20:48:00,
2013-05-17 15:53:00,81.5,61.1,29.86,NE,53,0.0,0.0,50,0.00,,,0.04,VWS V13.01,2013-05-17 20:53:00,
2013-05-17 15:58:00,82.0,62.1,29.86,WSW,247,4.9,4.9,51,0.00,,,0.04,VWS V13.01,2013-05-17 20:58:00,
2013-05-17 16:03:00,81.5,61.6,29.86,SSW,209,4.0,4.0,51,0.00,,,0.04,VWS V13.01,2013-05-17 21:03:00,
2013-05-17 16:08:00,81.5,62.2,29.86,SW,227,3.6,4.9,52,0.00,,,0.04,VWS V13.01,2013-05-17 21:08:00,
2013-05-17 16:13:00,81.5,62.2,29.86,WSW,255,5.4,5.4,52,0.00,,,0.04,VWS V13.01,2013-05-17 21:13:00,
2013-05-17 16:18:00,81.7,62.3,29.86,West,280,4.0,4.0,52,0.00,,,0.04,VWS V13.01,2013-05-17 21:18:00,
2013-05-17 16:23:00,81.7,62.3,29.86,NNE,20,2.7,3.6,52,0.00,,,0.04,VWS V13.01,2013-05-17 21:23:00,
2013-05-17 16:28:00,81.7,62.3,29.86,South,183,5.4,5.4,52,0.00,,,0.04,VWS V13.01,2013-05-17 21:28:00,
2013-05-17 16:33:00,81.1,62.4,29.83,SSE,165,5.8,5.8,53,0.00,,,0.04,VWS V13.01,2013-05-17 21:33:00,
2013-05-17 16:38:00,80.8,62.0,29.83,SSE,167,0.0,0.0,53,0.00,,,0.04,VWS V13.01,2013-05-17 21:38:00,
2013-05-17 16:43:00,81.1,62.4,29.83,South,169,5.4,5.4,53,0.00,,,0.04,VWS V13.01,2013-05-17 21:43:00,
2013-05-17 16:48:00,81.3,63.1,29.83,South,184,4.9,7.6,54,0.00,,,0.04,VWS V13.01,2013-05-17 21:48:00,
2013-05-17 16:53:00,81.5,62.7,29.83,SE,139,4.0,4.0,53,0.00,,,0.04,VWS V13.01,2013-05-17 21:53:00,
2013-05-17 16:58:00,81.3,62.5,29.83,ENE,69,2.2,2.7,53,0.00,,,0.04,VWS V13.01,2013-05-17 21:58:00,
2013-05-17 17:03:00,81.3,62.5,29.83,SW,232,5.8,5.8,53,0.00,,,0.04,VWS V13.01,2013-05-17 22:03:00,
2013-05-17 17:08:00,81.1,62.4,29.83,South,171,0.0,2.2,53,0.00,,,0.04,VWS V13.01,2013-05-17 22:08:00,
2013-05-17 17:13:00,81.3,63.1,29.83,SSW,206,0.0,0.0,54,0.00,,,0.04,VWS V13.01,2013-05-17 22:13:00,
2013-05-17 17:18:00,81.5,62.7,29.83,East,83,3.1,4.9,53,0.00,,,0.04,VWS V13.01,2013-05-17 22:18:00,
2013-05-17 17:23:00,81.5,62.7,29.83,South,177,4.0,4.0,53,0.00,,,0.04,VWS V13.01,2013-05-17 22:23:00,
2013-05-17 17:28:00,81.3,62.5,29.83,SSE,166,5.8,5.8,53,0.00,,,0.04,VWS V13.01,2013-05-17 22:28:00,
2013-05-17 17:33:00,80.8,62.6,29.83,South,172,3.1,3.1,54,0.00,,,0.04,VWS V13.01,2013-05-17 22:33:00,
2013-05-17 17:38:00,80.4,63.3,29.83,SSE,166,3.1,3.1,56,0.00,,,0.04,VWS V13.01,2013-05-17 22:38:00,
2013-05-17 17:43:00,80.6,63.5,29.83,SE,127,3.6,4.0,56,0.00,,,0.04,VWS V13.01,2013-05-17 22:43:00,
2013-05-17 17:48:00,80.6,63.5,29.83,East,83,3.6,3.6,56,0.00,,,0.04,VWS V13.01,2013-05-17 22:48:00,
2013-05-17 17:53:00,80.6,64.0,29.83,ESE,105,0.0,0.0,57,0.00,,,0.04,VWS V13.01,2013-05-17 22:53:00,
2013-05-17 17:58:00,81.1,64.0,29.83,South,187,6.7,6.7,56,0.00,,,0.04,VWS V13.01,2013-05-17 22:58:00,
2013-05-17 18:03:00,80.9,63.8,29.83,ESE,117,8.1,8.1,56,0.00,,,0.04,VWS V13.01,2013-05-17 23:03:00,
2013-05-17 18:08:00,80.6,63.5,29.83,East,88,3.6,4.9,56,0.00,,,0.04,VWS V13.01,2013-05-17 23:08:00,
2013-05-17 18:13:00,80.4,63.8,29.83,ESE,119,3.1,3.1,57,0.00,,,0.04,VWS V13.01,2013-05-17 23:13:00,
2013-05-17 18:18:00,80.2,64.1,29.83,ENE,68,0.0,2.2,58,0.00,,,0.04,VWS V13.01,2013-05-17 23:18:00,
2013-05-17 18:23:00,80.4,64.3,29.83,ESE,115,3.6,3.6,58,0.00,,,0.04,VWS V13.01,2013-05-17 23:23:00,
2013-05-17 18:28:00,80.6,64.4,29.83,East,79,2.7,2.7,58,0.00,,,0.04,VWS V13.01,2013-05-17 23:28:00,
2013-05-17 18:33:00,80.4,63.8,29.83,East,89,3.1,4.0,57,0.00,,,0.04,VWS V13.01,2013-05-17 23:33:00,
2013-05-17 18:38:00,80.2,64.1,29.83,ESE,105,4.0,4.9,58,0.00,,,0.04,VWS V13.01,2013-05-17 23:38:00,
2013-05-17 18:43:00,80.0,64.4,29.83,SSE,157,3.1,4.0,59,0.00,,,0.04,VWS V13.01,2013-05-17 23:43:00,
2013-05-17 18:48:00,79.9,64.3,29.83,ENE,59,4.0,4.0,59,0.00,,,0.04,VWS V13.01,2013-05-17 23:48:00,
2013-05-17 18:53:00,79.7,64.1,29.83,East,94,0.0,2.7,59,0.00,,,0.04,VWS V13.01,2013-05-17 23:53:00,
2013-05-17 18:58:00,79.9,64.3,29.83,East,89,2.7,2.7,59,0.00,,,0.04,VWS V13.01,2013-05-17 23:58:00,
2013-05-17 19:03:00,79.9,64.8,29.83,ESE,112,2.7,3.6,60,0.00,,,0.04,VWS V13.01,2013-05-18 00:03:00,
2013-05-17 19:08:00,79.7,64.1,29.83,ESE,111,2.7,2.7,59,0.00,,,0.04,VWS V13.01,2013-05-18 00:08:00,
2013-05-17 19:13:00,79.5,63.9,29.83,ESE,116,2.7,2.7,59,0.00,,,0.04,VWS V13.01,2013-05-18 00:13:00,
2013-05-17 19:18:00,79.5,64.4,29.83,ESE,109,2.7,2.7,60,0.00,,,0.04,VWS V13.01,2013-05-18 00:18:00,
2013-05-17 19:22:00,79.3,64.2,29.83,East,86,3.6,3.6,60,0.00,,,0.04,VWS V13.01,2013-05-18 00:22:00,
2013-05-17 19:27:00,79.1,64.1,29.83,ESE,108,2.2,2.7,60,0.00,,,0.04,VWS V13.01,2013-05-18 00:27:00,
2013-05-17 19:32:00,79.0,64.4,29.83,East,99,2.7,3.1,61,0.00,,,0.04,VWS V13.01,2013-05-18 00:32:00,
2013-05-17 19:37:00,78.6,64.0,29.83,ESE,104,2.7,2.7,61,0.00,,,0.04,VWS V13.01,2013-05-18 00:37:00,
2013-05-17 19:42:00,78.4,63.9,29.83,East,98,3.6,5.4,61,0.00,,,0.04,VWS V13.01,2013-05-18 00:42:00,
2013-05-17 19:47:00,78.1,64.0,29.83,ESE,109,2.7,3.6,62,0.00,,,0.04,VWS V13.01,2013-05-18 00:47:00,
2013-05-17 19:52:00,77.5,63.5,29.83,East,89,2.2,3.1,62,0.00,,,0.04,VWS V13.01,2013-05-18 00:52:00,
2013-05-17 19:57:00,77.2,63.6,29.83,ENE,72,2.7,3.6,63,0.00,,,0.04,VWS V13.01,2013-05-18 00:57:00,
2013-05-17 20:02:00,76.8,63.3,29.83,ESE,109,0.0,0.0,63,0.00,,,0.04,VWS V13.01,2013-05-18 01:02:00,
2013-05-17 20:07:00,76.6,63.5,29.83,ESE,102,0.0,0.0,64,0.00,,,0.04,VWS V13.01,2013-05-18 01:07:00,
2013-05-17 20:12:00,76.4,63.4,29.83,East,86,2.7,4.0,64,0.00,,,0.04,VWS V13.01,2013-05-18 01:12:00,
2013-05-17 20:17:00,76.3,63.6,29.86,ENE,71,2.2,3.6,65,0.00,,,0.04,VWS V13.01,2013-05-18 01:17:00,
2013-05-17 20:22:00,76.1,63.5,29.86,ESE,103,0.0,3.6,65,0.00,,,0.04,VWS V13.01,2013-05-18 01:22:00,
2013-05-17 20:27:00,75.7,63.6,29.86,ENE,77,2.7,2.7,66,0.00,,,0.04,VWS V13.01,2013-05-18 01:27:00,
2013-05-17 20:32:00,75.5,63.4,29.86,East,93,2.7,2.7,66,0.00,,,0.04,VWS V13.01,2013-05-18 01:32:00,
2013-05-17 20:37:00,75.2,63.5,29.86,East,91,0.0,0.0,67,0.00,,,0.04,VWS V13.01,2013-05-18 01:37:00,
2013-05-17 20:42:00,75.0,63.7,29.86,ENE,68,3.1,3.1,68,0.00,,,0.04,VWS V13.01,2013-05-18 01:42:00,
2013-05-17 20:47:00,75.0,63.7,29.86,ENE,69,0.0,2.7,68,0.00,,,0.04,VWS V13.01,2013-05-18 01:47:00,
2013-05-17 20:52:00,74.8,64.0,29.86,East,85,2.2,3.1,69,0.00,,,0.04,VWS V13.01,2013-05-18 01:52:00,
2013-05-17 20:57:00,74.6,64.2,29.86,ENE,60,2.2,2.7,70,0.00,,,0.04,VWS V13.01,2013-05-18 01:57:00,
2013-05-17 21:02:00,74.5,64.0,29.86,ENE,63,0.0,2.2,70,0.00,,,0.04,VWS V13.01,2013-05-18 02:02:00,
2013-05-17 21:07:00,74.5,64.4,29.86,ENE,63,2.7,2.7,71,0.00,,,0.04,VWS V13.01,2013-05-18 02:07:00,
2013-05-17 21:12:00,74.3,64.7,29.86,ENE,59,0.0,0.0,72,0.00,,,0.04,VWS V13.01,2013-05-18 02:12:00,
2013-05-17 21:17:00,73.9,65.5,29.86,ENE,59,0.0,0.0,75,0.00,,,0.04,VWS V13.01,2013-05-18 02:17:00,
2013-05-17 21:22:00,73.6,65.5,29.86,ENE,59,0.0,0.0,76,0.00,,,0.04,VWS V13.01,2013-05-18 02:22:00,
2013-05-17 21:27:00,73.0,65.8,29.86,ENE,59,0.0,0.0,78,0.00,,,0.04,VWS V13.01,2013-05-18 02:27:00,
2013-05-17 21:32:00,72.7,66.1,29.86,NNE,33,2.2,2.7,80,0.00,,,0.04,VWS V13.01,2013-05-18 02:32:00,
2013-05-17 21:37:00,72.1,66.0,29.86,NNE,33,2.2,2.2,81,0.00,,,0.04,VWS V13.01,2013-05-18 02:37:00,
2013-05-17 21:42:00,71.8,66.0,29.86,NNE,33,0.0,0.0,82,0.00,,,0.04,VWS V13.01,2013-05-18 02:42:00,
2013-05-17 21:47:00,71.4,66.0,29.86,NNE,33,0.0,0.0,83,0.00,,,0.04,VWS V13.01,2013-05-18 02:47:00,
2013-05-17 21:52:00,71.0,66.3,29.86,NNE,33,0.0,0.0,85,0.00,,,0.04,VWS V13.01,2013-05-18 02:52:00,
2013-05-17 21:57:00,70.9,66.5,29.86,NNE,33,0.0,0.0,86,0.00,,,0.04,VWS V13.01,2013-05-18 02:57:00,
2013-05-17 22:02:00,70.7,66.3,29.86,NNE,33,0.0,0.0,86,0.00,,,0.04,VWS V13.01,2013-05-18 03:02:00,
2013-05-17 22:07:00,70.5,66.4,29.86,NNE,33,0.0,0.0,87,0.00,,,0.04,VWS V13.01,2013-05-18 03:07:00,
2013-05-17 22:12:00,70.1,66.4,29.86,NNE,33,0.0,0.0,88,0.00,,,0.04,VWS V13.01,2013-05-18 03:12:00,
2013-05-17 22:17:00,69.8,66.4,29.86,NNE,33,0.0,0.0,89,0.00,,,0.04,VWS V13.01,2013-05-18 03:17:00,
2013-05-17 22:22:00,69.6,66.2,29.86,NNE,33,0.0,0.0,89,0.00,,,0.04,VWS V13.01,2013-05-18 03:22:00,
2013-05-17 22:27:00,69.4,66.4,29.86,NNE,33,0.0,0.0,90,0.00,,,0.04,VWS V13.01,2013-05-18 03:27:00,
2013-05-17 22:32:00,69.2,66.2,29.89,NNE,33,0.0,0.0,90,0.00,,,0.04,VWS V13.01,2013-05-18 03:32:00,
2013-05-17 22:37:00,69.1,66.3,29.89,NNE,33,0.0,0.0,91,0.00,,,0.04,VWS V13.01,2013-05-18 03:37:00,
2013-05-17 22:42:00,68.9,66.2,29.89,NNE,33,0.0,0.0,91,0.00,,,0.04,VWS V13.01,2013-05-18 03:42:00,
2013-05-17 22:47:00,68.9,66.2,29.89,NNE,33,0.0,0.0,91,0.00,,,0.04,VWS V13.01,2013-05-18 03:47:00,
2013-05-17 22:52:00,68.9,66.2,29.89,NNE,33,0.0,0.0,91,0.00,,,0.04,VWS V13.01,2013-05-18 03:52:00,
2013-05-17 22:57:00,69.1,66.3,29.89,NNE,33,0.0,0.0,91,0.00,,,0.04,VWS V13.01,2013-05-18 03:57:00,
2013-05-17 23:01:00,69.1,66.6,29.89,NNE,33,0.0,0.0,92,0.00,,,0.04,VWS V13.01,2013-05-18 04:01:00,
2013-05-17 23:06:00,69.1,66.6,29.89,NNE,33,0.0,0.0,92,0.00,,,0.04,VWS V13.01,2013-05-18 04:06:00,
2013-05-17 23:11:00,69.1,66.6,29.89,NNE,33,0.0,0.0,92,0.00,,,0.04,VWS V13.01,2013-05-18 04:11:00,
2013-05-17 23:16:00,68.9,66.5,29.89,NNE,33,0.0,0.0,92,0.00,,,0.04,VWS V13.01,2013-05-18 04:16:00,
2013-05-17 23:21:00,68.9,66.8,29.89,NNE,17,0.0,0.0,93,0.00,,,0.04,VWS V13.01,2013-05-18 04:21:00,
2013-05-17 23:26:00,68.9,66.5,29.89,NNE,18,0.0,0.0,92,0.00,,,0.04,VWS V13.01,2013-05-18 04:26:00,
2013-05-17 23:31:00,68.9,66.5,29.89,North,360,0.0,0.0,92,0.00,,,0.04,VWS V13.01,2013-05-18 04:31:00,
2013-05-17 23:36:00,68.9,66.5,29.89,NNE,28,0.0,0.0,92,0.00,,,0.04,VWS V13.01,2013-05-18 04:36:00,
2013-05-17 23:41:00,69.1,66.3,29.89,NNE,33,2.7,2.7,91,0.00,,,0.04,VWS V13.01,2013-05-18 04:41:00,
2013-05-17 23:46:00,68.9,66.2,29.89,NNE,33,2.7,2.7,91,0.00,,,0.04,VWS V13.01,2013-05-18 04:46:00,
2013-05-17 23:51:00,68.9,66.2,29.89,NNE,32,0.0,0.0,91,0.00,,,0.04,VWS V13.01,2013-05-18 04:51:00,
2013-05-17 23:56:00,68.9,66.5,29.89,NNE,32,0.0,0.0,92,0.00,,,0.04,VWS V13.01,2013-05-18 04:56:00,